Main page
METAR-TAF:

METAR-TAF

Airports :

Nouakchott–Oumtounsy International Airport

Nouakchott, Mauritania

latitude: 18-18-36N, longitude: 015-58-11W, elevation: 3 m

Current weather observation

The report was made 25 minutes ago, at 13:00 UTC
Wind 8 kt from the Southwest, varying between South/Southwest and West
Temperature 31°C
Humidity 43%
Pressure 1010 hPa
Visibility: 4500 m
widespread dust

METAR: GQNO 281300Z 23008KT 200V270 4500 DU NSC 31/17 Q1010 NOSIG

Time: 13:25 (13:25 UTC)

Forecast

The report was made 2 hours and 25 minutes ago, at 11:00 UTC
Forecast valid from 28 at 12 UTC to 29 at 18 UTC
Wind 10 kt from the West/Southwest
Visibility: 6000 m
Becoming
from 28 at 15 UTC to 28 at 18 UTC
Wind 12 kt from the Northwest
Probability 40% :
Temporary
from 29 at 04 UTC to 29 at 08 UTC
Broken clouds at a height of 800 ft

TAF: GQNO 281100Z 2812/2918 24010KT 6000 NSC BECMG 2815/2818 32012KT PROB40 TEMPO 2904/2908 BKN008

Weather observations and forecasts of more than 4000 airports (METAR and TAF reports).

The available stations are represented by yellow and red dots on the map.

Hover mouse over dot to see the name of the station.

Then click to see weather observations and forecasts.

To change the map : click on the green buttons with a black cross to zoom in, on the green button with a dash to zoom out, or on the green arrows for adjacent maps.


METAR-TAF: